地図

経路データ

SID SEASON NUMBER BASIN SUBBASIN NAME ISO_TIME NATURE LAT LON WMO_WIND WMO_PRES WMO_AGENCY TRACK_TYPE DIST2LAND LANDFALL IFLAG USA_AGENCY USA_ATCF_ID USA_LAT USA_LON USA_RECORD USA_STATUS USA_WIND USA_PRES USA_SSHS USA_R34_NE USA_R34_SE USA_R34_SW USA_R34_NW USA_R50_NE USA_R50_SE USA_R50_SW USA_R50_NW USA_R64_NE USA_R64_SE USA_R64_SW USA_R64_NW USA_POCI USA_ROCI USA_RMW USA_EYE TOKYO_LAT TOKYO_LON TOKYO_GRADE TOKYO_WIND TOKYO_PRES TOKYO_R50_DIR TOKYO_R50_LONG TOKYO_R50_SHORT TOKYO_R30_DIR TOKYO_R30_LONG TOKYO_R30_SHORT TOKYO_LAND CMA_LAT CMA_LON CMA_CAT CMA_WIND CMA_PRES HKO_LAT HKO_LON HKO_CAT HKO_WIND HKO_PRES NEWDELHI_LAT NEWDELHI_LON NEWDELHI_GRADE NEWDELHI_WIND NEWDELHI_PRES NEWDELHI_CI NEWDELHI_DP NEWDELHI_POCI REUNION_LAT REUNION_LON REUNION_TYPE REUNION_WIND REUNION_PRES REUNION_TNUM REUNION_CI REUNION_RMW REUNION_R34_NE REUNION_R34_SE REUNION_R34_SW REUNION_R34_NW REUNION_R50_NE REUNION_R50_SE REUNION_R50_SW REUNION_R50_NW REUNION_R64_NE REUNION_R64_SE REUNION_R64_SW REUNION_R64_NW BOM_LAT BOM_LON BOM_TYPE BOM_WIND BOM_PRES BOM_TNUM BOM_CI BOM_RMW BOM_R34_NE BOM_R34_SE BOM_R34_SW BOM_R34_NW BOM_R50_NE BOM_R50_SE BOM_R50_SW BOM_R50_NW BOM_R64_NE BOM_R64_SE BOM_R64_SW BOM_R64_NW BOM_ROCI BOM_POCI BOM_EYE BOM_POS_METHOD BOM_PRES_METHOD NADI_LAT NADI_LON NADI_CAT NADI_WIND NADI_PRES WELLINGTON_LAT WELLINGTON_LON WELLINGTON_WIND WELLINGTON_PRES DS824_LAT DS824_LON DS824_STAGE DS824_WIND DS824_PRES TD9636_LAT TD9636_LON TD9636_STAGE TD9636_WIND TD9636_PRES TD9635_LAT TD9635_LON TD9635_WIND TD9635_PRES TD9635_ROCI NEUMANN_LAT NEUMANN_LON NEUMANN_CLASS NEUMANN_WIND NEUMANN_PRES MLC_LAT MLC_LON MLC_CLASS MLC_WIND MLC_PRES USA_GUST BOM_GUST BOM_GUST_PER REUNION_GUST REUNION_GUST_PER USA_SEAHGT USA_SEARAD_NE USA_SEARAD_SE USA_SEARAD_SW USA_SEARAD_NW STORM_SPEED STORM_DIR
1933173N12140 1933 18 WP MM NOT_NAMED 1933-06-21 21:00:00 NR 12.0000 140.000 main 1503 1473 __________O___ -1 12.0000 140.000 2 16 293
1933173N12140 1933 18 WP MM NOT_NAMED 1933-06-22 00:00:00 NR 12.3207 139.236 main 1462 1394 __________P___ -1 12.3207 139.236 2 16 294
1933173N12140 1933 18 WP MM NOT_NAMED 1933-06-22 03:00:00 NR 12.6524 138.467 main 1395 1314 __________P___ -1 12.6524 138.467 2 17 294
1933173N12140 1933 18 WP MM NOT_NAMED 1933-06-22 06:00:00 NR 13.0079 137.689 main 1314 1236 __________P___ -1 13.0079 137.689 2 17 296
1933173N12140 1933 18 WP MM NOT_NAMED 1933-06-22 09:00:00 NR 13.4000 136.900 main 1236 1162 __________O___ -1 13.4000 136.900 2 18 298
1933173N12140 1933 18 WP MM NOT_NAMED 1933-06-22 12:00:00 NR 13.8246 136.091 main 1162 1084 __________P___ -1 13.8246 136.091 2 18 297
1933173N12140 1933 18 WP MM NOT_NAMED 1933-06-22 15:00:00 NR 14.2093 135.240 main 1074 994 __________P___ -1 14.2093 135.240 2 18 290
1933173N12140 1933 18 WP MM NOT_NAMED 1933-06-22 18:00:00 NR 14.4645 134.318 main 986 893 __________P___ -1 14.4645 134.318 2 19 279
1933173N12140 1933 18 WP MM NOT_NAMED 1933-06-22 21:00:00 NR 14.5000 133.300 main 882 745 __________O___ -1 14.5000 133.300 2 22 260
1933173N12140 1933 18 WP MM NOT_NAMED 1933-06-23 00:00:00 NR 14.0586 132.038 main 735 593 __________P___ -1 14.0586 132.038 2 27 247
1933173N12140 1933 18 WP MM NOT_NAMED 1933-06-23 03:00:00 NR 13.4179 130.710 main 579 439 __________P___ -1 13.4179 130.710 2 28 243
1933173N12140 1933 18 WP MM NOT_NAMED 1933-06-23 06:00:00 NR 12.7926 129.453 main 439 316 __________P___ -1 12.7926 129.453 2 25 246
1933173N12140 1933 18 WP MM NOT_NAMED 1933-06-23 09:00:00 NR 12.4000 128.400 main 316 252 __________O___ -1 12.4000 128.400 2 17 261
1933173N12140 1933 18 WP MM NOT_NAMED 1933-06-23 12:00:00 NR 12.5143 127.733 main 241 206 __________P___ -1 12.5143 127.733 2 12 294
1933173N12140 1933 18 WP MM NOT_NAMED 1933-06-23 15:00:00 NR 12.8881 127.266 main 210 195 __________P___ -1 12.8881 127.266 2 12 318
1933173N12140 1933 18 WP MM NOT_NAMED 1933-06-23 18:00:00 NR 13.4181 126.891 main 202 202 __________P___ -1 13.4181 126.891 2 13 326
1933173N12140 1933 18 WP MM NOT_NAMED 1933-06-23 21:00:00 NR 14.0000 126.500 main 219 175 __________O___ -1 14.0000 126.500 2 15 317
1933173N12140 1933 18 WP MM NOT_NAMED 1933-06-24 00:00:00 NR 14.5211 125.845 main 165 147 __________P___ -1 14.5211 125.845 2 17 309
1933173N12140 1933 18 WP MM NOT_NAMED 1933-06-24 03:00:00 NR 15.0617 125.168 main 156 150 __________P___ -1 15.0617 125.168 2 16 310
1933173N12140 1933 18 WP MM NOT_NAMED 1933-06-24 06:00:00 NR 15.5712 124.557 main 181 180 __________P___ -1 15.5712 124.557 2 14 312
1933173N12140 1933 18 WP MM NOT_NAMED 1933-06-24 09:00:00 NR 16.0000 124.100 main 198 153 __________O___ -1 16.0000 124.100 2 10 316
1933173N12140 1933 18 WP MM NOT_NAMED 1933-06-24 12:00:00 NR 16.2970 123.839 main 153 135 __________P___ -1 16.2970 123.839 2 6 326
1933173N12140 1933 18 WP MM NOT_NAMED 1933-06-24 15:00:00 NR 16.5107 123.749 main 135 132 __________P___ -1 16.5107 123.749 2 4 355
1933173N12140 1933 18 WP MM NOT_NAMED 1933-06-24 18:00:00 NR 16.6691 123.809 main 140 140 __________P___ -1 16.6691 123.809 2 4 40
1933173N12140 1933 18 WP MM NOT_NAMED 1933-06-24 21:00:00 NR 16.8000 124.000 main 160 160 __________O___ -1 16.8000 124.000 2 5 61
1933173N12140 1933 18 WP MM NOT_NAMED 1933-06-25 00:00:00 NR 16.9261 124.302 main 191 191 __________P___ -1 16.9261 124.302 2 7 69
1933173N12140 1933 18 WP MM NOT_NAMED 1933-06-25 03:00:00 NR 17.0518 124.687 main 234 234 __________P___ -1 17.0518 124.687 2 8 72
1933173N12140 1933 18 WP MM NOT_NAMED 1933-06-25 06:00:00 NR 17.1765 125.130 main 277 277 __________P___ -1 17.1765 125.130 2 9 74
1933173N12140 1933 18 WP MM NOT_NAMED 1933-06-25 09:00:00 NR 17.3000 125.600 main 331 __________O___ -1 17.3000 125.600 2 9 75

デジタル台風データ・検索

IBTrACS Databaseについて

本データベースは、米国NOAAが公開する1842年以降の世界の熱帯低気圧のベストトラックデータアーカイブInternational Best Track Archive for Climate Stewardship (IBTrACS)を、ウェブで閲覧しやすい形式に変換したものです。

最終更新日:2021-11-26